Time;durP1;ratioP1;P1;durP2;ratioP2;P2;SDS_P1;SDS_P2;PMS_P1;PMS_P2;Temp;Humidity;BMP_temperature;BMP_pressure;BME280_temperature;BME280_humidity;BME280_pressure;Samples;Min_cycle;Max_cycle;Signal;HPM_P1;HPM_P2
2021/04/19 00:00:28;;;;;;;13.67;8.03;;;;;;;3.68;65.97;100027.88;364437;146;864894;-60
2021/04/19 00:01:31;;;;;;;13.91;8.45;;;;;;;3.71;66.09;100027.94;366272;146;859468;-60
2021/04/19 00:02:33;;;;;;;14.04;9.06;;;;;;;3.73;65.68;100022.03;363691;146;865125;-60
2021/04/19 00:03:34;;;;;;;14.56;7.84;;;;;;;3.73;65.48;100026.27;360173;147;860064;-60
2021/04/19 00:04:38;;;;;;;11.26;7.39;;;;;;;3.73;64.99;100023.70;359540;149;865748;-60
2021/04/19 00:05:39;;;;;;;10.91;7.69;;;;;;;3.73;64.59;100022.03;360005;147;866028;-61
2021/04/19 00:06:42;;;;;;;10.69;7.51;;;;;;;3.75;64.42;100022.92;358681;149;859088;-61
2021/04/19 00:07:43;;;;;;;12.73;7.76;;;;;;;3.75;64.13;100019.48;359714;149;859068;-61
2021/04/19 00:08:45;;;;;;;13.40;7.70;;;;;;;3.77;64.23;100023.82;365922;140;864790;-60
2021/04/19 00:09:47;;;;;;;13.29;8.42;;;;;;;3.80;64.14;100025.56;371128;145;865185;-60
2021/04/19 00:10:49;;;;;;;12.35;7.49;;;;;;;3.83;64.16;100020.51;369266;144;865134;-61
2021/04/19 00:11:51;;;;;;;13.38;7.47;;;;;;;3.84;64.08;100022.23;371872;145;857810;-60
2021/04/19 00:12:52;;;;;;;11.46;7.46;;;;;;;3.83;63.88;100017.95;365106;145;857120;-60
2021/04/19 00:13:54;;;;;;;14.41;8.00;;;;;;;3.84;63.99;100024.80;368519;143;866840;-61
2021/04/19 00:14:56;;;;;;;14.09;7.91;;;;;;;3.88;64.29;100018.05;369789;145;864988;-60
2021/04/19 00:15:58;;;;;;;14.17;7.90;;;;;;;3.91;64.57;100018.97;369257;143;864965;-60
2021/04/19 00:16:59;;;;;;;13.42;8.55;;;;;;;3.93;64.19;100019.02;370201;144;857660;-61
2021/04/19 00:18:01;;;;;;;14.06;7.52;;;;;;;3.92;64.09;100017.28;369821;145;857153;-61
2021/04/19 00:19:03;;;;;;;10.56;7.34;;;;;;;3.94;63.71;100025.86;368109;145;865638;-61
2021/04/19 00:20:06;;;;;;;14.23;7.55;;;;;;;3.92;63.11;100015.57;371109;145;864979;-61
2021/04/19 00:21:08;;;;;;;12.45;6.85;;;;;;;3.90;62.62;100013.83;371818;145;859655;-61
2021/04/19 00:22:10;;;;;;;12.43;6.95;;;;;;;3.85;62.60;100018.84;369192;143;857266;-61
2021/04/19 00:23:12;;;;;;;9.56;6.54;;;;;;;3.82;62.34;100013.66;370205;145;859037;-61
2021/04/19 00:24:14;;;;;;;10.27;6.64;;;;;;;3.81;62.44;100019.61;364213;146;866764;-61
2021/04/19 00:25:16;;;;;;;11.69;6.50;;;;;;;3.79;61.88;100018.72;363661;146;864906;-60
2021/04/19 00:26:18;;;;;;;9.93;7.71;;;;;;;3.73;61.55;100008.34;364982;147;858973;-61
2021/04/19 00:27:20;;;;;;;10.72;7.11;;;;;;;3.71;62.40;100007.45;364149;146;867141;-61
2021/04/19 00:28:22;;;;;;;9.62;6.60;;;;;;;3.68;62.97;100009.95;357037;148;866406;-61
2021/04/19 00:29:23;;;;;;;10.99;6.68;;;;;;;3.66;63.42;100009.90;361847;147;866166;-60
2021/04/19 00:30:27;;;;;;;15.04;8.01;;;;;;;3.67;62.71;100005.66;363085;146;867116;-60
2021/04/19 00:31:29;;;;;;;12.52;7.95;;;;;;;3.65;62.70;100009.05;362965;146;865084;-61
2021/04/19 00:32:31;;;;;;;11.74;7.35;;;;;;;3.68;63.42;100002.27;363595;144;857344;-61
2021/04/19 00:33:33;;;;;;;14.19;7.56;;;;;;;3.72;63.59;100004.05;363115;146;857257;-61
2021/04/19 00:34:34;;;;;;;11.99;7.36;;;;;;;3.72;63.58;100004.05;360704;149;865414;-61
2021/04/19 00:35:36;;;;;;;10.83;6.98;;;;;;;3.72;63.38;99999.81;364040;146;867217;-61
2021/04/19 00:36:39;;;;;;;13.43;6.85;;;;;;;3.74;62.85;99998.15;364648;147;866204;-60
2021/04/19 00:37:40;;;;;;;10.52;6.91;;;;;;;3.75;62.21;99997.31;354235;152;865076;-61
2021/04/19 00:38:42;;;;;;;12.73;7.51;;;;;;;3.76;62.09;100008.41;362173;146;858915;-61
2021/04/19 00:39:44;;;;;;;12.71;6.88;;;;;;;3.74;62.41;100003.27;364570;147;866063;-61
2021/04/19 00:40:46;;;;;;;11.87;6.97;;;;;;;3.73;62.57;100006.66;362291;145;859057;-61
2021/04/19 00:41:48;;;;;;;9.61;6.68;;;;;;;3.74;62.74;100000.70;362171;146;857461;-60
2021/04/19 00:42:52;;;;;;;12.64;7.43;;;;;;;3.72;62.58;100006.61;364354;147;866798;-60
2021/04/19 00:43:54;;;;;;;13.87;7.84;;;;;;;3.71;62.64;100002.33;363200;145;865095;-60
2021/04/19 00:44:55;;;;;;;9.99;7.03;;;;;;;3.70;62.83;99998.03;367667;145;861819;-61
2021/04/19 00:46:02;;;;;;;11.34;6.92;;;;;;;3.70;62.08;99995.48;363286;147;857997;-61
2021/04/19 00:47:01;;;;;;;15.09;7.90;;;;;;;3.69;61.60;100002.28;361694;146;865609;-61
2021/04/19 00:48:04;;;;;;;17.53;7.85;;;;;;;3.62;60.93;99998.74;369847;145;857249;-61
2021/04/19 00:49:06;;;;;;;15.66;8.31;;;;;;;3.54;61.31;99996.84;361904;148;859375;-61
2021/04/19 00:50:09;;;;;;;14.29;8.18;;;;;;;3.46;61.55;99999.25;363346;146;865075;-61
2021/04/19 00:51:11;;;;;;;14.13;8.43;;;;;;;3.40;61.74;99997.40;360465;147;857407;-60
2021/04/19 00:52:13;;;;;;;13.35;8.48;;;;;;;3.35;61.63;99999.00;363111;145;857417;-61
2021/04/19 00:53:15;;;;;;;17.21;8.75;;;;;;;3.29;61.79;99993.73;363463;147;864833;-61
2021/04/19 00:54:16;;;;;;;17.19;9.44;;;;;;;3.26;62.25;100004.79;358074;150;865067;-60
2021/04/19 00:55:18;;;;;;;14.93;9.03;;;;;;;3.24;62.58;100006.45;363231;146;865135;-60
2021/04/19 00:56:22;;;;;;;17.95;9.86;;;;;;;3.20;62.72;100005.50;361627;148;859424;-61
2021/04/19 00:57:23;;;;;;;18.60;9.71;;;;;;;3.21;63.02;99996.14;363486;145;858254;-61
2021/04/19 00:58:27;;;;;;;19.24;8.94;;;;;;;3.24;63.06;100003.89;362070;147;865121;-61
2021/04/19 00:59:29;;;;;;;20.99;10.01;;;;;;;3.27;63.00;99997.96;361922;148;866938;-60
2021/04/19 01:00:33;;;;;;;18.47;9.45;;;;;;;3.30;62.92;100003.14;363666;145;857358;-61
2021/04/19 01:01:35;;;;;;;17.46;9.32;;;;;;;3.31;62.93;99995.52;361507;145;857105;-61
2021/04/19 01:02:38;;;;;;;17.51;9.51;;;;;;;3.31;62.60;100000.64;363058;147;857352;-61
2021/04/19 01:03:40;;;;;;;16.21;9.23;;;;;;;3.27;62.45;99997.96;365041;146;857302;-60
2021/04/19 01:04:42;;;;;;;18.53;9.37;;;;;;;3.21;62.40;99996.14;364013;147;857989;-61
2021/04/19 01:05:44;;;;;;;17.80;9.17;;;;;;;3.17;62.25;99989.20;362816;146;858820;-61
2021/04/19 01:06:46;;;;;;;16.27;9.51;;;;;;;3.12;62.32;99991.66;364641;145;865986;-61
2021/04/19 01:07:47;;;;;;;18.57;9.35;;;;;;;3.10;62.55;99988.20;363739;146;857893;-60
2021/04/19 01:08:49;;;;;;;19.74;10.04;;;;;;;3.10;62.57;99993.33;361615;146;857317;-61
2021/04/19 01:09:51;;;;;;;16.54;9.74;;;;;;;3.10;62.51;99988.20;367884;145;865169;-60
2021/04/19 01:10:53;;;;;;;18.56;10.31;;;;;;;3.07;62.34;99988.98;370407;142;865006;-61
2021/04/19 01:11:55;;;;;;;18.36;9.46;;;;;;;3.04;62.21;99996.59;371758;144;857242;-61
2021/04/19 01:12:56;;;;;;;17.48;9.66;;;;;;;2.98;62.22;99993.89;371774;145;865451;-60
2021/04/19 01:13:58;;;;;;;15.74;9.84;;;;;;;2.94;62.54;99996.35;371099;142;865112;-61
2021/04/19 01:15:00;;;;;;;19.17;9.51;;;;;;;2.88;62.71;99992.82;371444;143;865045;-61
2021/04/19 01:16:02;;;;;;;18.09;9.71;;;;;;;2.89;63.23;99989.44;371231;142;860725;-61
2021/04/19 01:17:04;;;;;;;20.20;9.95;;;;;;;2.92;63.49;99984.39;371380;144;865713;-60
2021/04/19 01:18:06;;;;;;;20.05;10.04;;;;;;;2.94;63.65;99984.41;375400;143;857559;-60
2021/04/19 01:19:08;;;;;;;16.69;9.92;;;;;;;2.96;63.90;99987.87;374332;143;864653;-61
2021/04/19 01:20:11;;;;;;;18.52;9.69;;;;;;;2.98;64.11;99985.36;371721;144;857762;-60
2021/04/19 01:21:13;;;;;;;16.26;8.78;;;;;;;2.99;64.17;99987.09;371705;145;857762;-60
2021/04/19 01:22:14;;;;;;;16.24;9.48;;;;;;;2.99;64.17;99987.09;370252;142;857245;-61
2021/04/19 01:23:17;;;;;;;14.39;9.23;;;;;;;3.01;64.38;99986.28;371548;143;865065;-60
2021/04/19 01:24:19;;;;;;;16.79;9.23;;;;;;;3.03;64.12;99988.89;371578;142;857304;-61
2021/04/19 01:25:25;;;;;;;15.27;8.72;;;;;;;3.01;63.77;99985.44;371171;142;858005;-60
2021/04/19 01:26:28;;;;;;;16.92;8.83;;;;;;;3.00;63.61;99987.11;372671;142;857676;-60
2021/04/19 01:27:29;;;;;;;17.80;8.95;;;;;;;;;;372223;143;857272;-60
2021/04/19 01:28:31;;;;;;;17.83;9.41;;;;;;;;;;370995;145;858187;-60
2021/04/19 01:29:33;;;;;;;15.81;8.91;;;;;;;;;;362666;147;860593;-61
2021/04/19 01:30:38;;;;;;;16.09;8.94;;;;;;;;;;362396;145;858010;-60
2021/04/19 01:31:39;;;;;;;12.77;8.14;;;;;;;;;;364158;147;859101;-61
2021/04/19 01:32:41;;;;;;;15.34;8.70;;;;;;;;;;367632;145;857515;-60
2021/04/19 01:33:43;;;;;;;15.37;9.76;;;;;;;;;;363198;145;865159;-61
2021/04/19 01:34:45;;;;;;;16.70;8.78;;;;;;;;;;356751;150;857454;-60
2021/04/19 01:35:46;;;;;;;17.47;9.53;;;;;;;;;;350561;151;862975;-61
2021/04/19 01:36:48;;;;;;;15.00;8.19;;;;;;;;;;357509;147;858058;-60
2021/04/19 01:37:49;;;;;;;19.24;9.36;;;;;;;;;;366679;147;866302;-60
2021/04/19 01:38:51;;;;;;;18.19;9.43;;;;;;;;;;364416;145;858157;-61
2021/04/19 01:39:53;;;;;;;15.89;9.40;;;;;;;;;;363745;148;857373;-61
2021/04/19 01:40:55;;;;;;;18.31;9.99;;;;;;;;;;357196;148;864922;-60
2021/04/19 01:41:57;;;;;;;16.21;9.63;;;;;;;;;;365304;147;865042;-61
2021/04/19 01:42:58;;;;;;;17.97;9.66;;;;;;;;;;363948;146;857241;-60
2021/04/19 01:44:00;;;;;;;15.91;9.02;;;;;;;;;;364127;145;859214;-60
2021/04/19 01:45:03;;;;;;;16.24;10.40;;;;;;;;;;359786;149;858286;-61
2021/04/19 01:46:04;;;;;;;21.81;9.99;;;;;;;;;;355361;148;857438;-61
2021/04/19 01:47:06;;;;;;;22.52;11.09;;;;;;;;;;356924;148;866843;-60
2021/04/19 01:48:08;;;;;;;20.17;10.42;;;;;;;;;;356633;147;864945;-60
2021/04/19 01:49:19;;;;;;;18.66;10.72;;;;;;;;;;362033;145;857560;-60
2021/04/19 01:50:21;;;;;;;19.95;10.25;;;;;;;;;;363425;145;857240;-60
2021/04/19 01:51:25;;;;;;;21.39;10.12;;;;;;;;;;356743;150;857871;-62
2021/04/19 01:52:27;;;;;;;21.62;10.82;;;;;;;;;;355463;148;857481;-60
2021/04/19 01:53:28;;;;;;;20.86;10.67;;;;;;;;;;363513;148;864926;-60
2021/04/19 01:54:30;;;;;;;18.19;10.51;;;;;;;;;;356199;150;866624;-60
2021/04/19 01:55:32;;;;;;;18.78;9.90;;;;;;;;;;358367;148;859107;-60
2021/04/19 01:56:34;;;;;;;19.01;10.32;;;;;;;;;;360974;147;864651;-60
2021/04/19 01:57:36;;;;;;;18.63;10.13;;;;;;;;;;363147;144;866659;-60
2021/04/19 01:58:38;;;;;;;17.50;9.94;;;;;;;;;;363794;145;859162;-60
2021/04/19 01:59:39;;;;;;;22.62;10.79;;;;;;;;;;362059;147;857428;-60
2021/04/19 02:00:41;;;;;;;17.09;9.97;;;;;;;;;;358514;148;857456;-61
2021/04/19 02:01:50;;;;;;;24.46;11.89;;;;;;;;;;356384;149;857808;-60
2021/04/19 02:02:53;;;;;;;16.21;9.90;;;;;;;;;;363348;145;857173;-60
2021/04/19 02:04:06;;;;;;;19.71;10.14;;;;;;;;;;364394;147;858504;-60
2021/04/19 02:05:09;;;;;;;18.81;10.59;;;;;;;;;;362073;147;857720;-61
2021/04/19 02:06:30;;;;;;;17.24;10.04;;;;;;;;;;364446;145;857745;-60
2021/04/19 02:07:45;;;;;;;16.49;9.44;;;;;;;;;;364781;147;864947;-60
2021/04/19 02:09:04;;;;;;;15.44;8.81;;;;;;;;;;363497;144;865093;-60
2021/04/19 02:10:25;;;;;;;18.98;9.65;;;;;;;;;;365023;145;858211;-61
2021/04/19 02:11:45;;;;;;;17.69;9.93;;;;;;;;;;361986;146;859218;-60
2021/04/19 02:12:52;;;;;;;17.12;8.95;;;;;;;;;;365079;146;866064;-61
2021/04/19 02:13:55;;;;;;;15.08;9.46;;;;;;;;;;364371;145;859076;-60
2021/04/19 02:15:02;;;;;;;15.37;9.24;;;;;;;;;;366183;145;857295;-60
2021/04/19 02:16:08;;;;;;;15.91;8.93;;;;;;;;;;367410;145;857616;-61
2021/04/19 02:17:28;;;;;;;15.09;8.53;;;;;;;;;;363912;146;858822;-60
2021/04/19 02:18:32;;;;;;;26.95;8.82;;;;;;;;;;363581;147;857550;-63
2021/04/19 02:19:43;;;;;;;15.44;9.07;;;;;;;;;;362316;145;857318;-60
2021/04/19 02:20:46;;;;;;;16.09;8.62;;;;;;;;;;363604;147;857887;-60
2021/04/19 02:21:52;;;;;;;17.46;9.16;;;;;;;;;;363583;146;857820;-60
2021/04/19 02:22:55;;;;;;;15.16;9.07;;;;;;;;;;356964;148;858818;-60
2021/04/19 02:23:58;;;;;;;13.14;8.62;;;;;;;;;;352840;152;857701;-61
2021/04/19 02:25:01;;;;;;;15.06;9.05;;;;;;;;;;362265;146;858538;-60
2021/04/19 02:26:08;;;;;;;15.18;8.75;;;;;;;;;;363418;145;859988;-60
2021/04/19 02:27:11;;;;;;;14.22;8.87;;;;;;;;;;364402;146;865818;-61
2021/04/19 02:28:14;;;;;;;14.79;9.02;;;;;;;;;;363212;146;857436;-60
2021/04/19 02:29:17;;;;;;;16.57;8.89;;;;;;;;;;363806;147;859061;-61
2021/04/19 02:30:19;;;;;;;16.31;8.73;;;;;;;;;;362646;146;858337;-60
2021/04/19 02:31:21;;;;;;;12.99;7.44;;;;;;;;;;364502;147;857474;-60
2021/04/19 02:32:27;;;;;;;11.09;6.98;;;;;;;;;;362535;147;858987;-60
2021/04/19 02:33:31;;;;;;;16.88;8.97;;;;;;;;;;362840;145;859093;-60
2021/04/19 02:34:32;;;;;;;16.56;8.53;;;;;;;;;;362388;146;857625;-60
2021/04/19 02:35:34;;;;;;;16.93;9.35;;;;;;;;;;363678;145;865579;-60
2021/04/19 02:36:39;;;;;;;18.03;8.64;;;;;;;;;;361775;146;864918;-60
2021/04/19 02:37:41;;;;;;;20.31;11.22;;;;;;;;;;363326;147;859185;-60
2021/04/19 02:38:44;;;;;;;16.82;9.90;;;;;;;;;;364593;145;857498;-60
2021/04/19 02:39:46;;;;;;;20.36;10.90;;;;;;;;;;361243;147;865095;-60
2021/04/19 02:40:48;;;;;;;21.71;11.63;;;;;;;;;;363435;147;859078;-61
2021/04/19 02:41:50;;;;;;;21.41;10.59;;;;;;;;;;363371;146;859362;-60
2021/04/19 02:42:52;;;;;;;20.09;11.46;;;;;;;;;;363895;146;863497;-61
2021/04/19 02:43:54;;;;;;;22.30;10.49;;;;;;;;;;362693;144;858059;-61
2021/04/19 02:44:55;;;;;;;17.89;9.64;;;;;;;;;;364101;147;857353;-61
2021/04/19 02:45:57;;;;;;;19.02;10.05;;;;;;;;;;360210;147;864562;-61
2021/04/19 02:46:59;;;;;;;16.41;9.55;;;;;;;;;;356134;148;857303;-61
2021/04/19 02:48:00;;;;;;;18.16;10.95;;;;;;;;;;362779;148;866799;-61
2021/04/19 02:49:02;;;;;;;18.80;10.45;;;;;;;;;;360010;148;862900;-61
2021/04/19 02:50:05;;;;;;;17.67;9.75;;;;;;;;;;363157;145;865933;-62
2021/04/19 02:51:07;;;;;;;19.35;9.75;;;;;;;;;;356461;148;858512;-61
2021/04/19 02:52:10;;;;;;;22.77;9.99;;;;;;;;;;362812;147;865809;-61
2021/04/19 02:53:11;;;;;;;18.51;10.62;;;;;;;;;;354943;149;857432;-61
2021/04/19 02:54:13;;;;;;;20.29;10.69;;;;;;;;;;350366;150;858917;-59
2021/04/19 02:55:15;;;;;;;22.29;10.90;;;;;;;;;;354867;150;865942;-60
2021/04/19 02:56:17;;;;;;;18.19;11.37;;;;;;;;;;363723;146;859113;-60
2021/04/19 02:57:25;;;;;;;23.16;11.03;;;;;;;;;;364832;147;865716;-60
2021/04/19 02:58:38;;;;;;;16.59;9.92;;;;;;;;;;363430;147;865541;-60
2021/04/19 02:59:37;;;;;;;17.72;9.93;;;;;;;;;;362984;147;859275;-60
2021/04/19 03:00:44;;;;;;;14.90;8.67;;;;;;;;;;364565;147;865757;-60
2021/04/19 03:01:48;;;;;;;17.76;9.13;;;;;;;;;;362430;145;865216;-60
2021/04/19 03:02:50;;;;;;;16.44;9.52;;;;;;;;;;359637;146;859314;-60
2021/04/19 03:03:53;;;;;;;15.31;9.47;;;;;;;;;;361038;146;859136;-60
2021/04/19 03:04:54;;;;;;;18.75;10.61;;;;;;;;;;363979;147;859719;-60
2021/04/19 03:05:56;;;;;;;17.86;10.36;;;;;;;;;;362747;147;866044;-60
2021/04/19 03:06:57;;;;;;;19.19;10.59;;;;;;;;;;355443;148;864861;-61
2021/04/19 03:08:00;;;;;;;19.43;10.74;;;;;;;;;;356625;148;864802;-60
2021/04/19 03:09:02;;;;;;;18.85;10.15;;;;;;;;;;362855;148;859368;-60
2021/04/19 03:10:06;;;;;;;18.60;10.67;;;;;;;;;;345478;148;864834;-60
2021/04/19 03:11:09;;;;;;;19.73;12.04;;;;;;;;;;344739;154;857291;-60
2021/04/19 03:12:10;;;;;;;22.19;11.80;;;;;;;;;;347482;154;864976;-60
2021/04/19 03:13:12;;;;;;;21.17;11.91;;;;;;;;;;345129;152;865940;-60
2021/04/19 03:14:13;;;;;;;18.63;11.26;;;;;;;;;;341578;156;866560;-60
2021/04/19 03:15:16;;;;;;;18.29;10.64;;;;;;;;;;334757;151;857837;-60
2021/04/19 03:16:20;;;;;;;19.99;11.01;;;;;;;;;;342528;155;865383;-60
2021/04/19 03:17:23;;;;;;;18.17;10.30;;;;;;;;;;337337;157;859580;-60
2021/04/19 03:18:24;;;;;;;15.33;10.01;;;;;;;;;;342439;155;857362;-60
2021/04/19 03:19:26;;;;;;;17.97;10.49;;;;;;;;;;342444;154;866662;-60
2021/04/19 03:20:48;;;;;;;19.15;9.84;;;;;;;;;;343199;154;865064;-60
2021/04/19 03:26:19;;;;;;;17.86;9.21;;;;;;;2.61;64.90;99988.73;370430;142;879853;-59
2021/04/19 03:27:21;;;;;;;17.97;9.89;;;;;;;2.54;64.40;99988.55;364970;146;859608;-59
2021/04/19 03:28:23;;;;;;;17.37;9.67;;;;;;;2.54;64.40;99988.55;363203;145;864620;-59
2021/04/19 03:29:25;;;;;;;21.59;10.69;;;;;;;2.58;64.50;99992.91;356234;151;857117;-59
2021/04/19 03:30:27;;;;;;;15.20;9.84;;;;;;;2.58;64.08;99990.36;356151;148;857242;-60
2021/04/19 03:31:41;;;;;;;18.54;10.03;;;;;;;2.55;64.07;99988.58;356200;149;864990;-60
2021/04/19 03:32:48;;;;;;;20.16;10.43;;;;;;;2.55;64.13;99986.02;356612;149;857305;-61
2021/04/19 03:33:51;;;;;;;18.37;10.69;;;;;;;2.55;64.03;99993.69;358288;149;857827;-57
2021/04/19 03:34:53;;;;;;;18.46;10.13;;;;;;;2.42;63.42;99989.97;355421;150;857806;-59
2021/04/19 03:35:55;;;;;;;19.51;10.56;;;;;;;2.38;63.95;99990.72;356510;148;857688;-59
2021/04/19 03:36:58;;;;;;;19.00;11.40;;;;;;;2.38;63.86;99989.84;355689;150;866282;-59
2021/04/19 03:38:01;;;;;;;17.09;10.44;;;;;;;2.34;64.00;99988.91;355895;149;857306;-59
2021/04/19 03:39:03;;;;;;;19.17;10.48;;;;;;;2.32;64.29;99985.45;357676;149;858324;-58
2021/04/19 03:40:27;;;;;;;19.85;10.61;;;;;;;2.32;64.53;99985.45;357197;149;857698;-63
2021/04/19 03:41:30;;;;;;;20.44;10.58;;;;;;;2.35;64.76;99985.53;354704;150;867207;-61
2021/04/19 03:42:32;;;;;;;16.70;10.35;;;;;;;2.38;64.91;99987.28;356473;151;857708;-59
2021/04/19 03:43:33;;;;;;;23.27;11.17;;;;;;;2.38;64.91;99987.28;337805;151;860044;-56
2021/04/19 03:44:37;;;;;;;20.82;11.01;;;;;;;2.47;65.10;99988.40;339868;156;860231;-57
2021/04/19 03:45:39;;;;;;;21.36;11.61;;;;;;;2.50;65.05;99994.41;341703;154;865697;-58
2021/04/19 03:46:41;;;;;;;20.85;11.39;;;;;;;2.48;65.21;99995.24;332869;158;857388;-57
2021/04/19 03:47:43;;;;;;;18.53;11.22;;;;;;;2.53;65.35;99986.83;336442;159;857511;-58
2021/04/19 03:48:45;;;;;;;18.19;10.79;;;;;;;2.59;65.24;99992.09;340186;156;859683;-61
2021/04/19 03:49:53;;;;;;;16.86;10.62;;;;;;;2.65;65.07;99983.69;337250;157;865357;-58
2021/04/19 03:51:03;;;;;;;19.41;11.19;;;;;;;2.68;64.91;99992.32;336699;157;866295;-61
2021/04/19 03:52:07;;;;;;;18.27;9.56;;;;;;;2.70;64.93;99985.55;341273;154;857249;-58
2021/04/19 03:53:09;;;;;;;19.82;10.82;;;;;;;2.70;64.93;99985.55;336194;157;857414;-60
2021/04/19 03:54:11;;;;;;;21.16;11.52;;;;;;;2.78;65.02;99986.60;335678;159;859374;-59
2021/04/19 03:55:13;;;;;;;19.05;10.91;;;;;;;2.82;64.97;99992.67;336681;157;857482;-61
2021/04/19 03:56:16;;;;;;;18.05;11.13;;;;;;;2.79;64.79;99982.38;340443;156;857365;-59
2021/04/19 03:57:20;;;;;;;18.54;10.77;;;;;;;2.83;65.09;99991.84;350204;151;866264;-60
2021/04/19 03:58:22;;;;;;;20.19;11.45;;;;;;;2.89;65.23;99988.55;348388;151;858713;-60
2021/04/19 03:59:24;;;;;;;20.75;10.20;;;;;;;2.96;65.22;99985.31;350027;153;857286;-60
2021/04/19 04:00:27;;;;;;;18.29;10.77;;;;;;;3.01;65.18;99970.09;349884;152;857843;-60
2021/04/19 04:01:28;;;;;;;18.13;9.93;;;;;;;3.07;65.11;99981.31;349770;151;857289;-60
2021/04/19 04:02:30;;;;;;;19.86;10.93;;;;;;;3.14;65.07;99981.45;349096;150;857441;-59
2021/04/19 04:03:32;;;;;;;17.05;10.09;;;;;;;3.18;65.03;99989.25;342901;153;866509;-60
2021/04/19 04:04:34;;;;;;;17.65;10.35;;;;;;;3.21;65.11;99981.64;343728;153;864994;-60
2021/04/19 04:05:36;;;;;;;15.52;10.07;;;;;;;3.27;65.30;99983.48;351230;153;857442;-60
2021/04/19 04:06:41;;;;;;;17.01;10.23;;;;;;;3.32;65.32;99988.69;350737;152;865079;-60
2021/04/19 04:07:43;;;;;;;16.35;10.48;;;;;;;3.34;65.33;99982.79;351124;151;859729;-60
2021/04/19 04:08:45;;;;;;;16.62;9.61;;;;;;;3.36;65.17;99981.13;344248;153;865169;-61
2021/04/19 04:09:48;;;;;;;13.81;9.58;;;;;;;3.37;65.41;99984.53;344289;153;859523;-61
2021/04/19 04:10:50;;;;;;;15.21;9.99;;;;;;;3.42;65.50;99979.53;344453;156;859229;-59
2021/04/19 04:11:52;;;;;;;14.35;9.42;;;;;;;3.43;65.57;99979.55;344483;153;857517;-62
2021/04/19 04:12:54;;;;;;;15.49;9.49;;;;;;;3.49;65.67;99981.39;350231;151;857586;-64
2021/04/19 04:13:56;;;;;;;16.41;9.85;;;;;;;3.57;65.72;99987.54;349892;153;865468;-63
2021/04/19 04:14:58;;;;;;;15.51;10.69;;;;;;;3.65;65.71;99987.69;351345;151;857677;-61
2021/04/19 04:16:00;;;;;;;14.55;9.95;;;;;;;3.72;65.61;99986.13;349063;151;865419;-61
2021/04/19 04:17:03;;;;;;;15.67;9.97;;;;;;;3.77;65.48;99987.09;350553;153;857419;-62
2021/04/19 04:18:05;;;;;;;15.29;9.73;;;;;;;3.80;65.50;99985.47;350700;151;866033;-60
2021/04/19 04:19:06;;;;;;;16.21;10.27;;;;;;;3.84;65.45;99990.65;350429;151;859936;-61
2021/04/19 04:20:10;;;;;;;15.89;9.43;;;;;;;3.88;65.48;99984.75;348318;151;857359;-61
2021/04/19 04:21:12;;;;;;;16.74;9.81;;;;;;;3.92;65.51;99986.55;349566;151;865111;-60
2021/04/19 04:22:16;;;;;;;15.08;10.06;;;;;;;3.98;65.55;99986.66;349995;151;857774;-61
2021/04/19 04:23:18;;;;;;;16.77;9.94;;;;;;;4.05;65.63;99985.06;348712;153;865185;-60
2021/04/19 04:24:20;;;;;;;15.45;9.64;;;;;;;4.12;65.73;99992.03;349210;151;859131;-60
2021/04/19 04:25:21;;;;;;;15.94;9.73;;;;;;;4.18;65.91;99986.17;351204;151;859782;-62
2021/04/19 04:26:24;;;;;;;17.61;10.51;;;;;;;4.19;66.00;99986.19;350906;153;865996;-61
2021/04/19 04:27:26;;;;;;;15.41;9.93;;;;;;;4.23;66.31;99987.97;350033;151;859119;-64
2021/04/19 04:28:28;;;;;;;16.17;10.03;;;;;;;4.26;66.45;99978.64;345893;153;859386;-64
2021/04/19 04:29:30;;;;;;;14.43;9.67;;;;;;;4.31;66.62;99979.59;350017;151;858891;-61
2021/04/19 04:30:34;;;;;;;16.61;9.96;;;;;;;4.37;66.77;99977.98;350184;151;857361;-63
2021/04/19 04:31:36;;;;;;;14.77;9.95;;;;;;;4.45;66.92;99977.25;350039;153;858161;-63
2021/04/19 04:32:38;;;;;;;14.53;9.64;;;;;;;4.49;67.11;99977.35;349555;151;857306;-61
2021/04/19 04:33:39;;;;;;;15.86;9.90;;;;;;;4.58;67.28;99979.19;349452;152;859075;-62
2021/04/19 04:34:41;;;;;;;15.60;9.81;;;;;;;4.65;67.30;99978.45;351529;153;866301;-60
2021/04/19 04:35:43;;;;;;;18.05;10.93;;;;;;;4.71;67.37;99977.70;351106;151;859057;-59
2021/04/19 04:36:45;;;;;;;12.44;9.49;;;;;;;4.78;67.44;99984.66;349590;151;859801;-60
2021/04/19 04:37:47;;;;;;;14.50;10.02;;;;;;;4.88;67.35;99984.81;350169;153;856447;-62
2021/04/19 04:38:48;;;;;;;18.06;10.64;;;;;;;4.97;67.26;99980.70;350528;151;864510;-60
2021/04/19 04:39:50;;;;;;;14.05;9.43;;;;;;;5.06;67.18;99981.68;345148;154;864570;-61
2021/04/19 04:40:52;;;;;;;16.50;10.25;;;;;;;5.16;67.09;99990.36;349455;151;863972;-60
2021/04/19 04:41:54;;;;;;;16.41;10.27;;;;;;;5.23;67.03;99987.05;349990;152;856236;-61
2021/04/19 04:44:55;;;;;;;13.61;9.82;;;;;;;5.54;66.76;99980.64;368885;142;883323;-61
2021/04/19 04:46:08;;;;;;;15.05;9.47;;;;;;;5.54;66.78;99993.48;359770;147;857324;-61
2021/04/19 04:47:14;;;;;;;14.67;9.13;;;;;;;5.60;66.62;99986.70;352293;146;858918;-61
2021/04/19 04:48:44;;;;;;;17.23;9.91;;;;;;;5.67;66.64;99988.50;359275;146;859528;-61
2021/04/19 04:49:50;;;;;;;18.06;9.13;;;;;;;5.75;66.54;99986.05;362362;147;857353;-61
2021/04/19 04:50:54;;;;;;;16.03;9.54;;;;;;;5.87;66.34;99985.34;361927;146;868296;-61
2021/04/19 04:51:57;;;;;;;14.53;8.92;;;;;;;5.97;66.28;99992.31;360829;147;857415;-60
2021/04/19 04:53:11;;;;;;;13.92;8.50;;;;;;;6.03;66.63;99984.70;363194;147;857355;-61
2021/04/19 04:54:15;;;;;;;14.72;9.51;;;;;;;6.10;66.89;99990.76;361528;147;857585;-60
2021/04/19 04:55:17;;;;;;;15.08;9.02;;;;;;;6.17;67.08;99983.99;362305;147;858061;-60
2021/04/19 04:56:23;;;;;;;14.08;9.71;;;;;;;6.23;67.23;99984.91;362049;146;859037;-60
2021/04/19 04:57:25;;;;;;;13.68;8.76;;;;;;;6.38;67.56;99989.35;362285;147;857363;-60
2021/04/19 04:58:27;;;;;;;15.37;9.69;;;;;;;6.38;67.56;99989.35;362531;147;865865;-60
2021/04/19 04:59:28;;;;;;;14.95;8.87;;;;;;;6.41;67.45;99981.66;362618;146;857507;-60
2021/04/19 05:00:31;;;;;;;11.97;8.51;;;;;;;6.49;67.41;99991.16;362388;147;857844;-59
2021/04/19 05:01:33;;;;;;;13.21;9.08;;;;;;;6.56;67.42;99988.68;361294;146;865140;-60
2021/04/19 05:02:35;;;;;;;12.82;8.20;;;;;;;6.63;67.28;99983.59;361509;147;865546;-60
2021/04/19 05:03:37;;;;;;;11.51;7.41;;;;;;;6.69;67.17;99984.48;364660;147;866056;-60
2021/04/19 05:04:39;;;;;;;10.64;7.57;;;;;;;6.76;67.02;99985.41;355955;148;858875;-60
2021/04/19 05:05:40;;;;;;;11.94;8.44;;;;;;;6.82;66.88;99985.46;358370;147;857845;-60
2021/04/19 05:06:45;;;;;;;10.21;7.10;;;;;;;6.89;66.61;99982.94;361117;147;865358;-60
2021/04/19 05:07:46;;;;;;;10.48;6.78;;;;;;;6.94;66.45;99982.14;360852;147;866444;-60
2021/04/19 05:08:48;;;;;;;10.52;6.26;;;;;;;6.99;66.30;99977.88;359253;149;858862;-60
2021/04/19 05:09:50;;;;;;;11.75;7.07;;;;;;;7.06;66.00;99978.77;360367;147;864170;-60
2021/04/19 05:10:52;;;;;;;11.94;7.02;;;;;;;7.14;65.86;99979.68;362065;146;857357;-60
2021/04/19 05:11:53;;;;;;;11.78;7.94;;;;;;;7.17;65.76;99973.70;361396;147;864993;-60
2021/04/19 05:12:55;;;;;;;12.42;8.33;;;;;;;7.21;65.86;99980.59;360693;147;864984;-60
2021/04/19 05:14:03;;;;;;;13.39;8.63;;;;;;;7.13;65.95;99977.11;360410;147;865423;-60
2021/04/19 05:15:07;;;;;;;11.81;7.97;;;;;;;7.09;66.56;99978.79;360757;147;865057;-60
2021/04/19 05:16:09;;;;;;;12.11;7.35;;;;;;;7.09;67.37;99972.80;363258;146;859554;-60
2021/04/19 05:17:10;;;;;;;10.42;6.69;;;;;;;7.03;67.80;99976.17;360724;147;857754;-60
2021/04/19 05:18:17;;;;;;;9.90;5.98;;;;;;;7.01;66.85;99975.30;360420;147;859485;-60
2021/04/19 05:19:18;;;;;;;7.88;5.46;;;;;;;7.00;66.23;99977.03;361068;146;865016;-60
2021/04/19 05:20:20;;;;;;;9.01;6.16;;;;;;;6.99;66.42;99979.58;362755;147;859852;-60
2021/04/19 05:21:22;;;;;;;12.81;7.21;;;;;;;7.07;66.64;99977.07;359567;147;857398;-60